Time;durP1;ratioP1;P1;durP2;ratioP2;P2;SDS_P1;SDS_P2;PMS_P1;PMS_P2;Temp;Humidity;BMP_temperature;BMP_pressure;BME280_temperature;BME280_humidity;BME280_pressure;Samples;Min_cycle;Max_cycle;Signal;HPM_P1;HPM_P2
2022/10/22 00:01:11;;;;;;;17.63;10.20;;;;;;;14.54;57.79;101003.31;7394562;19;20036;-64
2022/10/22 00:03:36;;;;;;;16.17;9.52;;;;;;;14.46;57.84;100995.31;7389245;19;20693;-65
2022/10/22 00:06:02;;;;;;;17.63;9.98;;;;;;;14.33;58.32;101003.72;7393709;19;20015;-63
2022/10/22 00:08:28;;;;;;;18.35;11.07;;;;;;;14.30;58.17;101007.19;7392729;19;20483;-63
2022/10/22 00:10:54;;;;;;;17.10;9.70;;;;;;;14.31;58.20;101005.22;7391738;19;20744;-63
2022/10/22 00:13:20;;;;;;;20.38;10.00;;;;;;;14.27;58.13;101016.16;7391821;19;20535;-62
2022/10/22 00:15:45;;;;;;;20.33;10.55;;;;;;;14.26;58.19;101020.03;7392879;19;20083;-63
2022/10/22 00:18:11;;;;;;;18.23;11.15;;;;;;;14.28;58.28;101022.41;7391641;19;20006;-62
2022/10/22 00:20:36;;;;;;;23.00;11.60;;;;;;;14.16;58.30;101020.63;7391852;19;20641;-62
2022/10/22 00:23:02;;;;;;;22.27;11.18;;;;;;;13.99;58.36;101014.38;7391665;19;20368;-62
2022/10/22 00:25:27;;;;;;;19.77;11.00;;;;;;;13.94;58.47;101014.66;7392839;19;20017;-62
2022/10/22 00:27:53;;;;;;;18.85;10.48;;;;;;;13.90;58.60;101021.25;7392364;19;20002;-62
2022/10/22 00:30:19;;;;;;;18.30;10.23;;;;;;;14.14;57.96;101025.69;7392766;19;20034;-62
2022/10/22 00:32:44;;;;;;;16.25;9.88;;;;;;;14.16;57.72;101020.63;7390114;19;20010;-63
2022/10/22 00:35:10;;;;;;;17.83;10.32;;;;;;;14.07;57.64;101023.56;7393292;19;19999;-63
2022/10/22 00:37:35;;;;;;;17.15;9.95;;;;;;;14.06;57.83;101020.03;7391833;19;20027;-61
2022/10/22 00:40:02;;;;;;;15.35;9.02;;;;;;;14.00;57.76;101021.47;7392113;19;20337;-61
2022/10/22 00:42:29;;;;;;;16.27;10.07;;;;;;;13.95;58.11;101024.50;7387577;19;20006;-61
2022/10/22 00:45:10;;;;;;;15.23;9.40;;;;;;;13.94;57.89;101027.59;7388811;19;20058;-61
2022/10/22 00:47:56;;;;;;;17.77;9.27;;;;;;;13.86;57.82;101023.91;7390010;19;20010;-61
2022/10/22 00:50:28;;;;;;;19.95;10.55;;;;;;;13.86;58.10;101032.94;7391122;19;20002;-62
2022/10/22 00:52:55;;;;;;;16.05;9.52;;;;;;;13.86;57.86;101035.69;7388622;19;20003;-61
2022/10/22 00:55:22;;;;;;;18.88;10.88;;;;;;;13.99;57.82;101027.31;7390254;19;20002;-61
2022/10/22 00:57:48;;;;;;;16.23;9.98;;;;;;;13.93;57.77;101035.06;7393780;19;20018;-61
2022/10/22 01:00:15;;;;;;;15.88;10.20;;;;;;;13.86;57.68;101035.69;7395041;19;20007;-62
2022/10/22 01:02:40;;;;;;;15.73;9.43;;;;;;;13.95;57.78;101043.72;7396001;19;20002;-61
2022/10/22 01:05:06;;;;;;;19.30;9.32;;;;;;;13.98;57.43;101040.25;7395951;19;20029;-61
2022/10/22 01:07:40;;;;;;;16.88;10.07;;;;;;;13.97;57.00;101041.41;7397948;19;19999;-61
2022/10/22 01:10:25;;;;;;;;;;;;;;;13.87;57.21;101031.00;7396533;19;20352;-62
2022/10/22 01:13:02;;;;;;;19.33;10.55;;;;;;;13.81;57.48;101037.88;7394436;19;20003;-62
2022/10/22 01:15:48;;;;;;;17.45;10.57;;;;;;;13.75;57.37;101029.13;7397556;19;19995;-62
2022/10/22 01:18:23;;;;;;;16.42;10.00;;;;;;;13.74;57.57;101034.97;7394744;19;20002;-62
2022/10/22 01:21:06;;;;;;;15.52;8.30;;;;;;;13.65;57.66;101035.97;7397966;19;20062;-62
2022/10/22 01:24:10;;;;;;;17.13;10.02;;;;;;;13.60;57.51;101038.19;7393744;19;19995;-62
2022/10/22 01:26:54;;;;;;;15.15;8.60;;;;;;;13.54;57.95;101045.88;7395579;19;20016;-62
2022/10/22 01:29:19;;;;;;;16.00;9.43;;;;;;;13.59;57.76;101037.38;7396388;19;19991;-60
2022/10/22 01:31:52;;;;;;;17.60;8.93;;;;;;;13.62;57.66;101049.59;7396667;19;19991;-60
2022/10/22 01:34:19;;;;;;;13.60;8.32;;;;;;;13.71;57.30;101047.47;7396773;19;20002;-59
2022/10/22 01:36:46;;;;;;;15.73;8.38;;;;;;;13.77;57.01;101042.50;7396607;19;20027;-60
2022/10/22 01:39:14;;;;;;;14.30;8.85;;;;;;;13.82;57.05;101033.97;7394008;19;20098;-60
2022/10/22 01:41:44;;;;;;;15.40;9.13;;;;;;;13.83;57.13;101033.66;7396465;19;19994;-59
2022/10/22 01:44:33;;;;;;;14.98;8.82;;;;;;;13.83;57.19;101030.13;7396171;19;20030;-60
2022/10/22 01:47:27;;;;;;;15.77;9.05;;;;;;;13.91;56.62;101020.91;7396126;19;19998;-60
2022/10/22 01:50:01;;;;;;;16.60;9.98;;;;;;;13.79;56.93;101018.22;7395454;19;19998;-60
2022/10/22 01:52:50;;;;;;;16.73;9.00;;;;;;;13.68;57.35;101024.28;7395538;19;20016;-60
2022/10/22 01:55:28;;;;;;;17.90;9.18;;;;;;;13.69;57.27;101020.41;7395640;19;20486;-59
2022/10/22 01:58:18;;;;;;;15.27;9.10;;;;;;;13.74;56.81;101022.03;7393544;19;20007;-60
2022/10/22 02:00:59;;;;;;;14.60;8.30;;;;;;;13.79;57.00;101020.97;7396110;19;19999;-59
2022/10/22 02:03:34;;;;;;;16.85;8.40;;;;;;;13.75;56.68;101026.38;7393674;19;19999;-61
2022/10/22 02:06:07;;;;;;;14.23;8.85;;;;;;;13.56;57.37;101024.41;7393547;19;20534;-60
2022/10/22 02:08:35;;;;;;;18.15;9.10;;;;;;;13.63;57.15;101030.03;7392923;19;20470;-60
2022/10/22 02:11:02;;;;;;;19.05;10.60;;;;;;;13.80;57.23;101037.09;7391458;19;20502;-60
2022/10/22 02:13:43;;;;;;;17.90;10.00;;;;;;;13.91;57.04;101033.81;7393075;19;20115;-61
2022/10/22 02:16:12;;;;;;;17.30;10.63;;;;;;;13.90;56.66;101030.28;7395366;19;20014;-61
2022/10/22 02:18:41;;;;;;;17.65;11.15;;;;;;;13.85;56.71;101023.13;7394677;19;20436;-61
2022/10/22 02:21:08;;;;;;;16.10;9.73;;;;;;;13.83;56.74;101014.44;7393575;19;20007;-61
2022/10/22 02:23:34;;;;;;;17.90;10.13;;;;;;;13.79;56.78;101012.75;7393488;19;20503;-62
2022/10/22 02:26:06;;;;;;;15.32;9.82;;;;;;;13.59;57.66;101023.66;7395349;19;20066;-63
2022/10/22 02:28:45;;;;;;;16.48;10.85;;;;;;;13.76;57.55;101024.44;7393956;19;19999;-62
2022/10/22 02:31:17;;;;;;;20.10;12.60;;;;;;;13.92;57.63;101027.97;7393974;19;19998;-62
2022/10/22 02:33:50;;;;;;;16.60;10.80;;;;;;;13.96;57.13;101028.84;7392502;19;20034;-62
2022/10/22 02:36:16;;;;;;;20.73;12.60;;;;;;;13.98;57.42;101025.75;7394572;19;20042;-62
2022/10/22 02:38:42;;;;;;;17.67;11.77;;;;;;;14.03;57.54;101026.25;7393171;19;20010;-63
2022/10/22 02:41:08;;;;;;;18.92;11.90;;;;;;;13.99;57.66;101025.38;7394214;19;20003;-62
2022/10/22 02:43:42;;;;;;;24.30;13.05;;;;;;;14.02;57.44;101026.59;7393486;19;20017;-62
2022/10/22 02:46:09;;;;;;;19.83;12.20;;;;;;;14.05;57.57;101037.66;7394594;19;20094;-62
2022/10/22 02:48:35;;;;;;;19.05;12.05;;;;;;;14.08;57.64;101047.13;7393539;19;20458;-62
2022/10/22 02:51:00;;;;;;;18.80;12.25;;;;;;;14.08;57.54;101041.66;7393842;19;20377;-62
2022/10/22 02:53:26;;;;;;;18.15;11.23;;;;;;;14.06;57.94;101036.50;7392463;19;20058;-62
2022/10/22 02:55:52;;;;;;;19.50;11.57;;;;;;;14.11;57.96;101056.59;7393834;19;20014;-62
2022/10/22 02:58:17;;;;;;;18.23;11.73;;;;;;;14.10;57.97;101052.25;7391097;19;20003;-63
2022/10/22 03:00:43;;;;;;;21.00;12.60;;;;;;;14.10;57.95;101060.50;7393762;19;20074;-62
2022/10/22 03:03:08;;;;;;;17.83;12.50;;;;;;;14.13;57.78;101057.84;7393200;19;20344;-62
2022/10/22 03:05:34;;;;;;;19.17;12.00;;;;;;;14.06;58.04;101054.91;7393330;19;20006;-62
2022/10/22 03:08:00;;;;;;;20.27;12.75;;;;;;;14.10;57.98;101058.53;7393918;19;20006;-62
2022/10/22 03:10:25;;;;;;;20.40;12.13;;;;;;;14.12;57.86;101055.44;7391992;19;20002;-62
2022/10/22 03:12:51;;;;;;;18.30;10.73;;;;;;;14.13;57.63;101059.75;7393125;19;20002;-62
2022/10/22 03:15:16;;;;;;;21.55;12.77;;;;;;;14.11;57.84;101057.41;7393811;19;19999;-62
2022/10/22 03:17:42;;;;;;;17.38;11.55;;;;;;;14.10;57.92;101058.53;7391780;19;20343;-62
2022/10/22 03:20:08;;;;;;;17.98;11.60;;;;;;;14.11;57.97;101056.59;7388377;19;19998;-62
2022/10/22 03:22:35;;;;;;;18.95;11.40;;;;;;;14.05;57.81;101059.63;7392207;19;20148;-61
2022/10/22 03:25:06;;;;;;;18.95;11.38;;;;;;;14.05;58.03;101054.13;7393146;19;19999;-62
2022/10/22 03:27:34;;;;;;;14.85;9.77;;;;;;;14.05;57.63;101054.13;7393223;19;20002;-63
2022/10/22 03:30:00;;;;;;;17.25;10.30;;;;;;;13.98;58.02;101064.16;7390464;19;20007;-62
2022/10/22 03:32:26;;;;;;;16.77;11.25;;;;;;;14.01;58.00;101058.75;7391333;19;19998;-62
2022/10/22 03:34:51;;;;;;;17.40;11.30;;;;;;;14.04;57.52;101062.72;7392993;19;19997;-62
2022/10/22 03:37:17;;;;;;;16.58;10.57;;;;;;;14.01;57.74;101064.25;7393080;19;20020;-62
2022/10/22 03:39:44;;;;;;;17.20;10.82;;;;;;;14.02;57.79;101071.31;7390400;19;20309;-62
2022/10/22 03:42:12;;;;;;;20.40;11.27;;;;;;;14.04;57.63;101080.00;7392196;19;20027;-61
2022/10/22 03:44:39;;;;;;;17.98;10.57;;;;;;;14.03;57.85;101072.91;7390153;19;20392;-61
2022/10/22 03:47:05;;;;;;;17.52;10.60;;;;;;;14.07;57.59;101073.75;7392802;19;20001;-61
2022/10/22 03:49:31;;;;;;;18.77;11.77;;;;;;;14.05;57.73;101081.56;7391995;19;19998;-61
2022/10/22 03:52:03;;;;;;;19.08;10.82;;;;;;;13.99;57.82;101072.00;7391838;19;19999;-61
2022/10/22 03:54:29;;;;;;;18.92;11.68;;;;;;;14.07;57.49;101068.28;7392403;19;20001;-61
2022/10/22 03:56:54;;;;;;;19.65;11.52;;;;;;;14.05;57.60;101069.81;7391513;19;20332;-61
2022/10/22 03:59:20;;;;;;;17.85;11.48;;;;;;;14.05;57.44;101070.59;7389955;19;20017;-61
2022/10/22 04:01:45;;;;;;;18.23;11.48;;;;;;;14.02;57.68;101065.81;7391421;19;20054;-62
2022/10/22 04:04:11;;;;;;;19.58;10.18;;;;;;;14.01;57.63;101072.47;7392197;19;20459;-62
2022/10/22 04:06:36;;;;;;;16.88;9.70;;;;;;;13.86;57.55;101062.31;7391290;19;20058;-61
2022/10/22 04:09:02;;;;;;;17.30;10.18;;;;;;;13.80;57.56;101061.00;7390799;19;20575;-61
2022/10/22 04:11:27;;;;;;;18.58;10.07;;;;;;;13.70;57.56;101076.81;7388061;19;20349;-61
2022/10/22 04:13:53;;;;;;;17.52;9.40;;;;;;;13.65;57.63;101066.13;7389964;19;20475;-61
2022/10/22 04:16:21;;;;;;;19.00;11.25;;;;;;;13.70;57.20;101059.59;7390389;19;20041;-62
2022/10/22 04:18:47;;;;;;;19.02;10.57;;;;;;;13.54;57.75;101070.56;7390600;19;19995;-61
2022/10/22 04:21:15;;;;;;;15.13;8.82;;;;;;;13.46;57.72;101069.59;7391914;19;20017;-60
2022/10/22 04:23:45;;;;;;;14.70;9.85;;;;;;;13.39;58.13;101079.59;7388126;19;20010;-60
2022/10/22 04:26:11;;;;;;;16.83;10.18;;;;;;;13.40;57.88;101090.22;7389267;19;20024;-61
2022/10/22 04:28:37;;;;;;;16.13;9.38;;;;;;;13.45;57.79;101087.19;7390265;19;19998;-61
2022/10/22 04:31:12;;;;;;;14.80;9.10;;;;;;;13.46;57.85;101096.22;7389473;19;20583;-61
2022/10/22 04:33:39;;;;;;;18.08;9.93;;;;;;;13.41;57.88;101096.47;7388045;19;20014;-61
2022/10/22 04:36:13;;;;;;;12.77;8.40;;;;;;;13.32;57.87;101086.47;7389803;19;20098;-61
2022/10/22 04:38:40;;;;;;;17.77;11.05;;;;;;;13.36;58.05;101091.25;7389490;19;19994;-60
2022/10/22 04:41:12;;;;;;;18.45;10.25;;;;;;;13.43;57.92;101094.19;7390874;19;19999;-60
2022/10/22 04:43:38;;;;;;;20.35;11.23;;;;;;;13.52;57.88;101086.56;7389610;19;20007;-61
2022/10/22 04:46:04;;;;;;;17.40;10.95;;;;;;;13.62;57.51;101088.78;7390031;19;20015;-61
2022/10/22 04:48:30;;;;;;;16.05;8.95;;;;;;;13.64;57.13;101089.25;7390351;19;20464;-61
2022/10/22 04:50:57;;;;;;;16.33;9.25;;;;;;;13.64;56.97;101083.75;7390651;19;19994;-61
2022/10/22 04:53:23;;;;;;;15.93;9.65;;;;;;;13.54;57.18;101094.44;7388503;19;20010;-61
2022/10/22 04:55:48;;;;;;;16.10;9.73;;;;;;;13.54;57.23;101088.97;7389938;19;20475;-61
2022/10/22 04:58:14;;;;;;;15.50;9.80;;;;;;;13.56;57.08;101076.50;7389966;19;20008;-61
2022/10/22 05:00:39;;;;;;;14.80;8.77;;;;;;;13.55;56.85;101090.56;7388212;19;19995;-61
2022/10/22 05:03:11;;;;;;;17.40;10.13;;;;;;;13.53;57.03;101088.19;7387859;19;20078;-63
2022/10/22 05:05:37;;;;;;;17.83;10.07;;;;;;;13.33;57.46;101092.78;7390665;19;20031;-61
2022/10/22 05:08:02;;;;;;;16.65;10.05;;;;;;;13.30;57.10;101091.53;7389582;19;19994;-61
2022/10/22 05:10:28;;;;;;;16.23;9.68;;;;;;;13.26;57.51;101090.66;7389343;19;20003;-61
2022/10/22 05:12:53;;;;;;;17.67;9.95;;;;;;;13.20;57.32;101075.59;7389204;19;20118;-61
2022/10/22 05:15:19;;;;;;;16.73;9.63;;;;;;;13.26;57.13;101079.69;7390545;19;20020;-61
2022/10/22 05:17:44;;;;;;;16.35;10.02;;;;;;;13.19;57.17;101087.72;7389610;19;20007;-61
2022/10/22 05:20:10;;;;;;;17.63;9.82;;;;;;;13.17;57.14;101084.53;7388034;19;20002;-61
2022/10/22 05:22:36;;;;;;;16.45;10.68;;;;;;;13.18;57.38;101083.41;7388103;19;20010;-61
2022/10/22 05:25:01;;;;;;;18.13;9.68;;;;;;;13.22;57.24;101094.44;7390138;19;20079;-61
2022/10/22 05:27:27;;;;;;;16.75;9.82;;;;;;;13.22;57.15;101099.94;7389439;19;20003;-60
2022/10/22 05:29:52;;;;;;;17.33;9.85;;;;;;;13.30;57.16;101102.50;7389818;19;20019;-61
2022/10/22 05:32:18;;;;;;;21.00;9.35;;;;;;;13.38;56.98;101097.22;7389584;19;20348;-60
2022/10/22 05:34:43;;;;;;;18.23;10.65;;;;;;;13.32;57.34;101100.19;7389854;19;20002;-61
2022/10/22 05:37:09;;;;;;;21.17;11.52;;;;;;;13.42;57.41;101103.56;7389488;19;20002;-61
2022/10/22 05:39:35;;;;;;;18.77;11.00;;;;;;;13.46;57.24;101110.72;7385375;19;19999;-61
2022/10/22 05:42:02;;;;;;;18.88;11.48;;;;;;;13.46;57.34;101107.19;7388928;19;20003;-61
2022/10/22 05:44:27;;;;;;;22.67;12.60;;;;;;;13.56;57.08;101103.94;7394873;19;20003;-61
2022/10/22 05:46:53;;;;;;;20.80;12.18;;;;;;;13.58;57.36;101111.81;7396692;19;20023;-60
2022/10/22 05:49:19;;;;;;;18.95;11.38;;;;;;;13.60;57.16;101107.53;7395380;19;20408;-61
2022/10/22 05:51:45;;;;;;;20.25;11.95;;;;;;;13.63;57.51;101120.56;7393976;19;20005;-61
2022/10/22 05:54:16;;;;;;;18.48;11.57;;;;;;;13.62;57.41;101113.47;7396841;19;20009;-60
2022/10/22 05:56:42;;;;;;;17.63;11.02;;;;;;;13.58;57.29;101109.06;7395372;19;20002;-60
2022/10/22 05:59:10;;;;;;;17.15;10.82;;;;;;;13.45;57.39;101100.13;7394226;19;20313;-62
2022/10/22 06:01:35;;;;;;;17.50;10.98;;;;;;;13.29;57.38;101100.91;7395974;19;20003;-62
2022/10/22 06:04:04;;;;;;;18.63;10.63;;;;;;;13.22;57.55;101106.19;7393963;19;20088;-62
2022/10/22 06:06:43;;;;;;;18.98;10.60;;;;;;;13.36;57.36;101115.94;7393858;19;20027;-62
2022/10/22 06:09:20;;;;;;;18.80;10.88;;;;;;;13.33;57.07;101118.25;7394938;19;20014;-62
2022/10/22 06:11:46;;;;;;;17.92;10.50;;;;;;;13.25;57.37;101124.69;7392781;19;20006;-61
2022/10/22 06:14:12;;;;;;;19.50;12.20;;;;;;;13.35;57.71;101117.09;7395333;19;20010;-61
2022/10/22 06:16:38;;;;;;;20.92;11.73;;;;;;;13.43;57.75;101118.88;7394879;19;20002;-62
2022/10/22 06:19:04;;;;;;;16.52;11.10;;;;;;;13.50;57.45;101122.56;7394147;19;20344;-62
2022/10/22 06:21:30;;;;;;;22.30;11.50;;;;;;;13.57;57.26;101121.97;7395592;19;20006;-61
2022/10/22 06:23:57;;;;;;;19.13;11.43;;;;;;;13.59;57.22;101135.31;7392556;19;19999;-62
2022/10/22 06:26:22;;;;;;;21.45;12.02;;;;;;;13.58;57.42;101129.03;7394094;19;20002;-62
2022/10/22 06:28:48;;;;;;;20.13;12.85;;;;;;;13.56;57.77;101128.63;7394819;19;20003;-62
2022/10/22 06:31:13;;;;;;;23.45;13.70;;;;;;;13.58;57.45;101129.03;7395370;19;20071;-62
2022/10/22 06:33:42;;;;;;;17.85;10.57;;;;;;;13.59;57.57;101138.84;7393199;19;19991;-62
2022/10/22 06:36:11;;;;;;;19.92;11.52;;;;;;;13.57;57.52;101143.09;7395039;19;19994;-62
2022/10/22 06:38:37;;;;;;;21.67;12.43;;;;;;;13.54;57.63;101150.09;7393125;19;19999;-61
2022/10/22 06:41:05;;;;;;;20.95;12.40;;;;;;;13.57;57.60;101149.38;7393068;19;20349;-61
2022/10/22 06:43:30;;;;;;;19.42;12.40;;;;;;;13.64;57.48;101154.25;7392616;19;19999;-62
2022/10/22 06:46:04;;;;;;;21.52;12.75;;;;;;;13.64;57.40;101149.59;7394731;19;20606;-61
2022/10/22 06:48:30;;;;;;;21.88;12.18;;;;;;;13.64;57.61;101149.59;7393584;19;19990;-61
2022/10/22 06:51:00;;;;;;;19.13;12.07;;;;;;;13.67;57.24;101148.84;7394183;19;20350;-61
2022/10/22 06:53:26;;;;;;;21.15;12.90;;;;;;;13.73;57.36;101154.06;7392847;19;20010;-61
2022/10/22 06:55:51;;;;;;;19.92;11.93;;;;;;;13.71;57.36;101157.19;7392132;19;19994;-61
2022/10/22 06:58:17;;;;;;;18.77;12.00;;;;;;;13.71;57.46;101165.41;7393192;19;19998;-61
2022/10/22 07:00:43;;;;;;;19.25;12.05;;;;;;;13.78;57.38;101181.25;7393863;19;20033;-63
2022/10/22 07:03:12;;;;;;;21.02;12.93;;;;;;;13.80;57.14;101178.94;7392460;19;20005;-62
2022/10/22 07:05:37;;;;;;;20.33;11.45;;;;;;;13.81;57.46;101177.78;7394460;19;19999;-61
2022/10/22 07:08:03;;;;;;;18.80;12.27;;;;;;;13.86;57.23;101183.84;7392730;19;19994;-61
2022/10/22 07:10:28;;;;;;;18.17;12.35;;;;;;;13.92;57.18;101183.59;7393611;19;20007;-62
2022/10/22 07:12:54;;;;;;;20.13;11.07;;;;;;;13.98;57.20;101188.44;7392463;19;20002;-63
2022/10/22 07:15:19;;;;;;;19.73;10.98;;;;;;;14.03;57.31;101185.44;7392720;19;20006;-62
2022/10/22 07:17:45;;;;;;;21.30;11.93;;;;;;;14.04;57.35;101188.97;7393538;19;20001;-62
2022/10/22 07:20:11;;;;;;;20.77;11.20;;;;;;;14.11;57.02;101191.06;7391197;19;20070;-62
2022/10/22 07:22:37;;;;;;;17.73;10.80;;;;;;;14.14;57.33;101199.41;7393227;19;20353;-61
2022/10/22 07:25:03;;;;;;;21.15;11.18;;;;;;;14.13;57.28;101199.75;7393233;19;19999;-61
2022/10/22 07:27:29;;;;;;;18.60;10.32;;;;;;;14.20;57.26;101197.97;7391475;19;20009;-60
2022/10/22 07:29:54;;;;;;;19.00;10.65;;;;;;;14.23;57.32;101201.97;7392568;19;19994;-61
2022/10/22 07:32:20;;;;;;;18.20;10.57;;;;;;;14.30;57.25;101206.84;7393332;19;20080;-62
2022/10/22 07:34:45;;;;;;;19.65;10.77;;;;;;;14.35;57.05;101199.09;7393010;19;20325;-61
2022/10/22 07:37:11;;;;;;;17.73;10.82;;;;;;;14.39;57.15;101201.94;7391760;19;19995;-61
2022/10/22 07:39:36;;;;;;;21.10;10.60;;;;;;;14.46;56.87;101213.06;7389591;19;20314;-61
2022/10/22 07:42:02;;;;;;;16.30;9.52;;;;;;;14.54;56.98;101209.31;7392831;19;20007;-62
2022/10/22 07:44:28;;;;;;;17.70;10.70;;;;;;;14.45;57.21;101203.25;7391264;19;19998;-61
2022/10/22 07:46:53;;;;;;;17.52;10.00;;;;;;;14.59;56.99;101213.75;7393148;19;20019;-61
2022/10/22 07:49:19;;;;;;;18.13;10.68;;;;;;;14.62;56.82;101208.31;7391933;19;20035;-64
2022/10/22 07:51:44;;;;;;;18.15;9.18;;;;;;;14.66;56.85;101213.91;7392746;19;20009;-62
2022/10/22 07:54:10;;;;;;;17.52;9.85;;;;;;;14.69;57.06;101207.69;7392696;19;20010;-61
2022/10/22 07:56:35;;;;;;;15.45;8.88;;;;;;;14.80;56.43;101216.19;7392111;19;20028;-61
2022/10/22 07:59:01;;;;;;;15.73;9.45;;;;;;;14.80;56.64;101222.47;7389020;19;20487;-61
2022/10/22 08:01:26;;;;;;;16.27;9.18;;;;;;;14.87;56.73;101218.31;7391136;19;20070;-63
2022/10/22 08:03:52;;;;;;;21.27;9.20;;;;;;;14.80;56.88;101221.69;7388359;19;20354;-63
2022/10/22 08:06:18;;;;;;;18.58;9.38;;;;;;;14.84;56.93;101219.81;7390413;19;20006;-61
2022/10/22 08:08:45;;;;;;;17.48;9.90;;;;;;;14.95;56.48;101222.78;7389175;19;20337;-62
2022/10/22 08:11:11;;;;;;;16.77;9.55;;;;;;;15.02;56.32;101219.41;7390377;19;19995;-62
2022/10/22 08:13:36;;;;;;;17.88;10.00;;;;;;;15.05;56.50;101224.97;7389809;19;20011;-63
2022/10/22 08:16:02;;;;;;;15.60;9.25;;;;;;;15.02;56.72;101219.41;7390489;19;20349;-63
2022/10/22 08:18:28;;;;;;;17.08;9.95;;;;;;;14.99;56.77;101223.66;7388517;19;20009;-62
2022/10/22 08:20:54;;;;;;;18.77;9.60;;;;;;;15.00;56.88;101225.25;7394985;19;19999;-62
2022/10/22 08:23:20;;;;;;;20.30;9.55;;;;;;;14.94;57.10;101226.69;7390584;19;20027;-62
2022/10/22 08:25:45;;;;;;;15.68;8.70;;;;;;;14.99;56.75;101229.94;7389792;19;20008;-62
2022/10/22 08:28:11;;;;;;;17.40;9.77;;;;;;;14.94;56.88;101229.44;7391172;19;19994;-61
2022/10/22 08:30:37;;;;;;;17.80;9.65;;;;;;;15.07;56.76;101233.63;7391694;19;20029;-62
2022/10/22 08:33:04;;;;;;;19.90;10.32;;;;;;;15.03;56.73;101224.53;7390617;19;20006;-61
2022/10/22 08:35:30;;;;;;;15.48;9.43;;;;;;;15.12;56.47;101233.34;7388898;19;20022;-62
2022/10/22 08:37:55;;;;;;;17.17;9.18;;;;;;;15.14;56.78;101236.53;7391312;19;20338;-62
2022/10/22 08:40:43;;;;;;;17.25;9.57;;;;;;;15.20;56.59;101228.78;7386513;19;20015;-62
2022/10/22 08:43:16;;;;;;;15.02;9.23;;;;;;;15.15;57.06;101235.38;7387938;19;20110;-61
2022/10/22 08:45:50;;;;;;;18.33;8.95;;;;;;;15.20;56.88;101241.72;7388296;19;20439;-62
2022/10/22 08:48:30;;;;;;;;;;;;;;;15.31;56.86;101240.00;7388977;19;20003;-62
2022/10/22 08:50:56;;;;;;;18.63;8.80;;;;;;;15.28;56.42;101237.97;7390288;19;20313;-63
2022/10/22 08:53:45;;;;;;;17.58;8.30;;;;;;;15.31;56.67;101237.25;7388128;19;20463;-63
2022/10/22 08:56:13;;;;;;;14.20;7.72;;;;;;;15.42;56.65;101237.47;7388706;19;19995;-60
2022/10/22 08:58:48;;;;;;;16.02;7.75;;;;;;;15.43;56.44;101234.34;7387877;19;20478;-62
2022/10/22 09:01:19;;;;;;;14.38;7.72;;;;;;;15.52;56.38;101236.88;7388702;19;20075;-61
2022/10/22 09:03:56;;;;;;;16.23;7.68;;;;;;;15.58;56.18;101237.34;7388538;19;20517;-63
2022/10/22 09:06:34;;;;;;;16.73;7.68;;;;;;;15.63;56.46;101239.81;7388267;19;20070;-61
2022/10/22 09:09:01;;;;;;;12.48;6.57;;;;;;;15.66;56.29;101248.13;7387814;19;19994;-61
2022/10/22 09:11:32;;;;;;;18.05;7.80;;;;;;;15.60;56.63;101243.28;7388383;19;20444;-61
2022/10/22 09:13:59;;;;;;;13.20;6.68;;;;;;;15.61;56.31;101245.66;7387873;19;20007;-62
2022/10/22 09:16:49;;;;;;;13.80;6.53;;;;;;;15.53;56.75;101244.75;7389837;19;20070;-62
2022/10/22 09:19:24;;;;;;;14.35;6.70;;;;;;;15.42;57.08;101243.75;7392208;19;20003;-61
2022/10/22 09:21:56;;;;;;;19.92;6.43;;;;;;;15.49;56.83;101254.09;7395393;19;20007;-62
2022/10/22 09:24:44;;;;;;;15.90;6.80;;;;;;;15.55;56.46;101252.63;7397469;19;20354;-62
2022/10/22 09:27:13;;;;;;;15.20;6.50;;;;;;;15.51;56.70;101258.09;7396317;19;19999;-61
2022/10/22 09:29:39;;;;;;;13.05;6.50;;;;;;;15.55;56.90;101253.44;7396189;19;20467;-61
2022/10/22 09:32:05;;;;;;;14.77;7.32;;;;;;;15.59;56.58;101253.50;7396401;19;20066;-61
2022/10/22 09:34:31;;;;;;;15.02;5.68;;;;;;;15.69;56.41;101252.13;7396566;19;20041;-62
2022/10/22 09:37:03;;;;;;;14.88;6.70;;;;;;;15.81;56.54;101251.16;7397224;19;19999;-61
2022/10/22 09:39:51;;;;;;;13.48;6.22;;;;;;;15.86;56.42;101256.34;7394486;19;20010;-62
2022/10/22 09:42:18;;;;;;;15.82;6.15;;;;;;;15.87;56.15;101250.47;7396450;19;19999;-62
2022/10/22 09:44:51;;;;;;;11.15;6.38;;;;;;;15.93;56.38;101256.47;7396939;19;20007;-62
2022/10/22 09:47:36;;;;;;;16.20;6.50;;;;;;;16.01;56.00;101255.44;7395433;19;20003;-62
2022/10/22 09:50:37;;;;;;;15.40;6.10;;;;;;;16.08;56.20;101260.25;7393318;19;20444;-61
2022/10/22 09:53:20;;;;;;;12.65;5.18;;;;;;;16.13;56.21;101265.44;7395474;19;20006;-62
2022/10/22 09:55:55;;;;;;;14.13;5.35;;;;;;;16.17;55.81;101271.03;7395999;19;20027;-62
2022/10/22 09:58:21;;;;;;;15.95;6.07;;;;;;;16.19;55.83;101258.47;7395077;19;20014;-61
2022/10/22 10:00:51;;;;;;;14.82;6.20;;;;;;;16.25;55.80;101257.00;7396308;19;20016;-61
2022/10/22 10:03:23;;;;;;;11.73;5.47;;;;;;;16.34;55.58;101264.22;7394846;19;19998;-61
2022/10/22 10:05:53;;;;;;;12.63;5.78;;;;;;;16.31;55.39;101267.72;7395500;19;20006;-62
2022/10/22 10:08:20;;;;;;;13.90;5.10;;;;;;;16.39;55.41;101267.44;7395563;19;20011;-61
2022/10/22 10:10:51;;;;;;;15.00;5.38;;;;;;;16.46;55.16;101280.53;7394551;19;20096;-62
2022/10/22 10:13:38;;;;;;;15.10;5.53;;;;;;;16.43;55.10;101286.78;7393898;19;20010;-62
2022/10/22 10:16:12;;;;;;;13.13;5.78;;;;;;;16.43;55.03;101286.78;7396037;19;20009;-62
2022/10/22 10:18:58;;;;;;;14.00;5.10;;;;;;;16.44;55.00;101286.41;7394199;19;20320;-62
2022/10/22 10:21:39;;;;;;;14.98;5.50;;;;;;;16.54;54.88;101287.78;7395164;19;19998;-62
2022/10/22 10:24:14;;;;;;;11.57;5.57;;;;;;;16.63;54.76;101282.81;7395732;19;20006;-62
2022/10/22 10:27:27;;;;;;;19.08;5.60;;;;;;;16.61;54.64;101287.88;7394869;19;19994;-62
2022/10/22 10:29:56;;;;;;;14.30;5.85;;;;;;;16.55;54.61;101286.63;7392553;19;19998;-62
2022/10/22 10:32:27;;;;;;;16.25;6.05;;;;;;;16.57;54.67;101281.53;7394525;19;20002;-62
2022/10/22 10:35:14;;;;;;;14.25;6.50;;;;;;;16.58;54.52;101293.34;7393204;19;20091;-62
2022/10/22 10:38:03;;;;;;;17.23;6.13;;;;;;;16.69;54.78;101288.00;7395806;19;20003;-62
2022/10/22 10:40:42;;;;;;;16.40;7.07;;;;;;;16.78;54.59;101286.53;7394702;19;20006;-62
2022/10/22 10:43:37;;;;;;;14.48;6.20;;;;;;;16.80;54.47;101281.47;7393254;19;20007;-62
2022/10/22 10:46:22;;;;;;;15.45;6.32;;;;;;;16.86;54.52;101278.38;7393776;19;20019;-62
2022/10/22 10:49:02;;;;;;;13.20;5.30;;;;;;;16.85;54.24;101285.84;7394198;19;20006;-62
2022/10/22 10:51:50;;;;;;;13.18;6.20;;;;;;;16.82;54.05;101294.88;7393860;19;20002;-61
2022/10/22 10:54:37;;;;;;;16.13;6.18;;;;;;;16.80;54.10;101291.69;7394218;19;20031;-62
2022/10/22 10:57:29;;;;;;;12.57;5.70;;;;;;;16.99;53.83;101288.81;7394763;19;19995;-62
2022/10/22 11:00:17;;;;;;;12.38;5.35;;;;;;;16.98;53.83;101287.19;7390275;19;19991;-61
2022/10/22 11:03:22;;;;;;;12.27;5.20;;;;;;;17.18;53.21;101285.09;7392252;19;20002;-61
2022/10/22 11:06:00;;;;;;;13.05;4.80;;;;;;;17.30;53.03;101291.56;7393406;19;20515;-63
2022/10/22 11:08:32;;;;;;;11.82;4.43;;;;;;;17.42;52.72;101293.28;7392488;19;19997;-63
2022/10/22 11:11:37;;;;;;;14.02;4.53;;;;;;;17.57;51.93;101292.28;7391273;19;20011;-62
2022/10/22 11:14:21;;;;;;;14.68;4.60;;;;;;;17.65;51.90;101302.22;7389861;19;20006;-63
2022/10/22 11:16:54;;;;;;;16.30;4.70;;;;;;;17.76;51.85;101294.06;7393705;19;20058;-62
2022/10/22 11:19:42;;;;;;;18.30;5.03;;;;;;;17.80;51.33;101297.63;7390083;19;20074;-63
2022/10/22 11:22:20;;;;;;;17.05;4.40;;;;;;;17.71;51.62;101294.41;7392725;19;20022;-62
2022/10/22 11:25:02;;;;;;;12.23;3.95;;;;;;;17.71;51.47;101292.44;7392125;19;20439;-62
2022/10/22 11:27:52;;;;;;;13.52;4.10;;;;;;;17.70;50.77;101290.84;7393982;19;20408;-61
2022/10/22 11:30:23;;;;;;;12.75;4.43;;;;;;;17.76;51.32;101302.34;7387211;19;20115;-71